sensor_id;sensor_type;location;lat;lon;timestamp;temperature;humidity
31967;DHT22;18496;52.042;6.812;2024-02-26T00:00:23;8.70;99.90
31967;DHT22;18496;52.042;6.812;2024-02-26T00:02:27;8.70;99.90
31967;DHT22;18496;52.042;6.812;2024-02-26T00:04:31;8.70;99.90
31967;DHT22;18496;52.042;6.812;2024-02-26T00:06:35;8.70;99.90
31967;DHT22;18496;52.042;6.812;2024-02-26T00:08:38;8.70;99.90
31967;DHT22;18496;52.042;6.812;2024-02-26T00:10:42;8.70;99.90
31967;DHT22;18496;52.042;6.812;2024-02-26T00:12:46;8.70;99.90
31967;DHT22;18496;52.042;6.812;2024-02-26T00:14:50;8.70;99.90
31967;DHT22;18496;52.042;6.812;2024-02-26T00:16:54;8.60;99.90
31967;DHT22;18496;52.042;6.812;2024-02-26T00:18:58;8.70;99.90
31967;DHT22;18496;52.042;6.812;2024-02-26T00:21:02;8.60;99.90
31967;DHT22;18496;52.042;6.812;2024-02-26T00:23:06;8.60;99.90
31967;DHT22;18496;52.042;6.812;2024-02-26T00:25:09;8.60;99.90
31967;DHT22;18496;52.042;6.812;2024-02-26T00:27:15;8.60;99.90
31967;DHT22;18496;52.042;6.812;2024-02-26T00:29:19;8.60;99.90
31967;DHT22;18496;52.042;6.812;2024-02-26T00:31:23;8.60;99.90
31967;DHT22;18496;52.042;6.812;2024-02-26T00:33:27;8.60;99.90
31967;DHT22;18496;52.042;6.812;2024-02-26T00:35:30;8.60;99.90
31967;DHT22;18496;52.042;6.812;2024-02-26T00:37:34;8.50;99.90
31967;DHT22;18496;52.042;6.812;2024-02-26T00:39:38;8.60;99.90
31967;DHT22;18496;52.042;6.812;2024-02-26T00:41:41;8.50;99.90
31967;DHT22;18496;52.042;6.812;2024-02-26T00:43:45;8.50;99.90
31967;DHT22;18496;52.042;6.812;2024-02-26T00:45:49;8.60;99.90
31967;DHT22;18496;52.042;6.812;2024-02-26T00:47:52;8.50;99.90
31967;DHT22;18496;52.042;6.812;2024-02-26T00:49:56;8.50;99.90
31967;DHT22;18496;52.042;6.812;2024-02-26T00:52:00;8.50;99.90
31967;DHT22;18496;52.042;6.812;2024-02-26T00:54:04;8.50;99.90
31967;DHT22;18496;52.042;6.812;2024-02-26T00:56:08;8.50;99.90
31967;DHT22;18496;52.042;6.812;2024-02-26T00:58:11;8.50;99.90
31967;DHT22;18496;52.042;6.812;2024-02-26T01:00:15;8.50;99.90
31967;DHT22;18496;52.042;6.812;2024-02-26T01:02:19;8.40;99.90
31967;DHT22;18496;52.042;6.812;2024-02-26T01:04:23;8.40;99.90
31967;DHT22;18496;52.042;6.812;2024-02-26T01:06:27;8.50;99.90
31967;DHT22;18496;52.042;6.812;2024-02-26T01:08:30;8.50;99.90
31967;DHT22;18496;52.042;6.812;2024-02-26T01:10:35;8.50;99.90
31967;DHT22;18496;52.042;6.812;2024-02-26T01:12:38;8.40;99.90
31967;DHT22;18496;52.042;6.812;2024-02-26T01:14:42;8.40;99.90
31967;DHT22;18496;52.042;6.812;2024-02-26T01:16:46;8.50;99.90
31967;DHT22;18496;52.042;6.812;2024-02-26T01:18:50;8.40;99.90
31967;DHT22;18496;52.042;6.812;2024-02-26T01:20:54;8.40;99.90
31967;DHT22;18496;52.042;6.812;2024-02-26T01:22:57;8.40;99.90
31967;DHT22;18496;52.042;6.812;2024-02-26T01:25:01;8.40;99.90
31967;DHT22;18496;52.042;6.812;2024-02-26T01:27:05;8.40;99.90
31967;DHT22;18496;52.042;6.812;2024-02-26T01:29:11;8.40;99.90
31967;DHT22;18496;52.042;6.812;2024-02-26T01:31:15;8.40;99.90
31967;DHT22;18496;52.042;6.812;2024-02-26T01:33:18;8.40;99.90
31967;DHT22;18496;52.042;6.812;2024-02-26T01:35:22;8.40;99.90
31967;DHT22;18496;52.042;6.812;2024-02-26T01:37:26;8.40;99.90
31967;DHT22;18496;52.042;6.812;2024-02-26T01:39:29;8.40;99.90
31967;DHT22;18496;52.042;6.812;2024-02-26T01:41:33;8.40;99.90
31967;DHT22;18496;52.042;6.812;2024-02-26T01:43:37;8.40;99.90
31967;DHT22;18496;52.042;6.812;2024-02-26T01:45:41;8.40;99.90
31967;DHT22;18496;52.042;6.812;2024-02-26T01:47:45;8.30;99.90
31967;DHT22;18496;52.042;6.812;2024-02-26T01:49:49;8.40;99.90
31967;DHT22;18496;52.042;6.812;2024-02-26T01:51:52;8.40;99.90
31967;DHT22;18496;52.042;6.812;2024-02-26T01:53:58;8.40;99.90
31967;DHT22;18496;52.042;6.812;2024-02-26T01:56:02;8.30;99.90
31967;DHT22;18496;52.042;6.812;2024-02-26T01:58:06;8.30;99.90
31967;DHT22;18496;52.042;6.812;2024-02-26T02:00:11;8.30;99.90
31967;DHT22;18496;52.042;6.812;2024-02-26T02:02:15;8.30;99.90
31967;DHT22;18496;52.042;6.812;2024-02-26T02:04:19;8.30;99.90
31967;DHT22;18496;52.042;6.812;2024-02-26T02:06:23;8.30;99.90
31967;DHT22;18496;52.042;6.812;2024-02-26T02:08:27;8.30;99.90
31967;DHT22;18496;52.042;6.812;2024-02-26T02:10:31;8.30;99.90
31967;DHT22;18496;52.042;6.812;2024-02-26T02:12:34;8.30;99.90
31967;DHT22;18496;52.042;6.812;2024-02-26T02:14:39;8.30;99.90
31967;DHT22;18496;52.042;6.812;2024-02-26T02:16:43;8.30;99.90
31967;DHT22;18496;52.042;6.812;2024-02-26T02:18:46;8.30;99.90
31967;DHT22;18496;52.042;6.812;2024-02-26T02:20:50;8.30;99.90
31967;DHT22;18496;52.042;6.812;2024-02-26T02:22:54;8.20;99.90
31967;DHT22;18496;52.042;6.812;2024-02-26T02:24:57;8.30;99.90
31967;DHT22;18496;52.042;6.812;2024-02-26T02:27:03;8.30;99.90
31967;DHT22;18496;52.042;6.812;2024-02-26T02:29:07;8.20;99.90
31967;DHT22;18496;52.042;6.812;2024-02-26T02:31:10;8.20;99.90
31967;DHT22;18496;52.042;6.812;2024-02-26T02:33:15;8.20;99.90
31967;DHT22;18496;52.042;6.812;2024-02-26T02:35:19;8.20;99.90
31967;DHT22;18496;52.042;6.812;2024-02-26T02:37:23;8.20;99.90
31967;DHT22;18496;52.042;6.812;2024-02-26T02:39:26;8.30;99.90
31967;DHT22;18496;52.042;6.812;2024-02-26T02:41:30;8.30;99.90
31967;DHT22;18496;52.042;6.812;2024-02-26T02:43:34;8.30;99.90
31967;DHT22;18496;52.042;6.812;2024-02-26T02:45:38;8.30;99.90
31967;DHT22;18496;52.042;6.812;2024-02-26T02:47:41;8.30;99.90
31967;DHT22;18496;52.042;6.812;2024-02-26T02:49:45;8.30;99.90
31967;DHT22;18496;52.042;6.812;2024-02-26T02:51:49;8.20;99.90
31967;DHT22;18496;52.042;6.812;2024-02-26T02:53:52;8.20;99.90
31967;DHT22;18496;52.042;6.812;2024-02-26T02:55:56;8.30;99.90
31967;DHT22;18496;52.042;6.812;2024-02-26T02:58:00;8.20;99.90
31967;DHT22;18496;52.042;6.812;2024-02-26T03:00:04;8.20;99.90
31967;DHT22;18496;52.042;6.812;2024-02-26T03:02:08;8.20;99.90
31967;DHT22;18496;52.042;6.812;2024-02-26T03:04:12;8.20;99.90
31967;DHT22;18496;52.042;6.812;2024-02-26T03:06:16;8.20;99.90
31967;DHT22;18496;52.042;6.812;2024-02-26T03:08:19;8.20;99.90
31967;DHT22;18496;52.042;6.812;2024-02-26T03:10:23;8.20;99.90
31967;DHT22;18496;52.042;6.812;2024-02-26T03:12:27;8.20;99.90
31967;DHT22;18496;52.042;6.812;2024-02-26T03:14:31;8.20;99.90
31967;DHT22;18496;52.042;6.812;2024-02-26T03:16:35;8.20;99.90
31967;DHT22;18496;52.042;6.812;2024-02-26T03:18:39;8.20;99.90
31967;DHT22;18496;52.042;6.812;2024-02-26T03:20:43;8.20;99.90
31967;DHT22;18496;52.042;6.812;2024-02-26T03:22:47;8.20;99.90
31967;DHT22;18496;52.042;6.812;2024-02-26T03:24:51;8.20;99.90
31967;DHT22;18496;52.042;6.812;2024-02-26T03:26:54;8.30;99.90
31967;DHT22;18496;52.042;6.812;2024-02-26T03:28:58;8.20;99.90
31967;DHT22;18496;52.042;6.812;2024-02-26T03:31:02;8.20;99.90
31967;DHT22;18496;52.042;6.812;2024-02-26T03:33:06;8.20;99.90
31967;DHT22;18496;52.042;6.812;2024-02-26T03:35:09;8.20;99.90
31967;DHT22;18496;52.042;6.812;2024-02-26T03:37:13;8.20;99.90
31967;DHT22;18496;52.042;6.812;2024-02-26T03:39:17;8.20;99.90
31967;DHT22;18496;52.042;6.812;2024-02-26T03:41:21;8.20;99.90
31967;DHT22;18496;52.042;6.812;2024-02-26T03:43:24;8.20;99.90
31967;DHT22;18496;52.042;6.812;2024-02-26T03:45:28;8.20;99.90
31967;DHT22;18496;52.042;6.812;2024-02-26T03:47:32;8.20;99.90
31967;DHT22;18496;52.042;6.812;2024-02-26T03:49:35;8.20;99.90
31967;DHT22;18496;52.042;6.812;2024-02-26T03:51:39;8.20;99.90
31967;DHT22;18496;52.042;6.812;2024-02-26T03:53:43;8.20;99.90
31967;DHT22;18496;52.042;6.812;2024-02-26T03:55:46;8.20;99.90
31967;DHT22;18496;52.042;6.812;2024-02-26T03:57:51;8.30;99.90
31967;DHT22;18496;52.042;6.812;2024-02-26T03:59:55;8.20;99.90
31967;DHT22;18496;52.042;6.812;2024-02-26T04:01:59;8.30;99.90
31967;DHT22;18496;52.042;6.812;2024-02-26T04:04:05;8.20;99.90
31967;DHT22;18496;52.042;6.812;2024-02-26T04:06:09;8.20;99.90
31967;DHT22;18496;52.042;6.812;2024-02-26T04:08:23;8.20;99.90
31967;DHT22;18496;52.042;6.812;2024-02-26T04:10:26;8.20;99.90
31967;DHT22;18496;52.042;6.812;2024-02-26T04:12:30;8.20;99.90
31967;DHT22;18496;52.042;6.812;2024-02-26T04:14:35;8.20;99.90
31967;DHT22;18496;52.042;6.812;2024-02-26T04:16:39;8.20;99.90
31967;DHT22;18496;52.042;6.812;2024-02-26T04:18:43;8.20;99.90
31967;DHT22;18496;52.042;6.812;2024-02-26T04:20:46;8.20;99.90
31967;DHT22;18496;52.042;6.812;2024-02-26T04:22:50;8.20;99.90
31967;DHT22;18496;52.042;6.812;2024-02-26T04:24:54;8.20;99.90
31967;DHT22;18496;52.042;6.812;2024-02-26T04:26:58;8.20;99.90
31967;DHT22;18496;52.042;6.812;2024-02-26T04:29:01;8.20;99.90
31967;DHT22;18496;52.042;6.812;2024-02-26T04:31:05;8.10;99.90
31967;DHT22;18496;52.042;6.812;2024-02-26T04:33:09;8.10;99.90
31967;DHT22;18496;52.042;6.812;2024-02-26T04:35:13;8.10;99.90
31967;DHT22;18496;52.042;6.812;2024-02-26T04:37:16;8.10;99.90
31967;DHT22;18496;52.042;6.812;2024-02-26T04:39:20;8.10;99.90
31967;DHT22;18496;52.042;6.812;2024-02-26T04:41:24;8.00;99.90
31967;DHT22;18496;52.042;6.812;2024-02-26T04:43:28;8.00;99.90
31967;DHT22;18496;52.042;6.812;2024-02-26T04:45:31;8.10;99.90
31967;DHT22;18496;52.042;6.812;2024-02-26T04:47:35;8.00;99.90
31967;DHT22;18496;52.042;6.812;2024-02-26T04:49:39;8.00;99.90
31967;DHT22;18496;52.042;6.812;2024-02-26T04:51:43;8.00;99.90
31967;DHT22;18496;52.042;6.812;2024-02-26T04:53:46;8.00;99.90
31967;DHT22;18496;52.042;6.812;2024-02-26T04:55:50;8.00;99.90
31967;DHT22;18496;52.042;6.812;2024-02-26T04:57:54;8.00;99.90
31967;DHT22;18496;52.042;6.812;2024-02-26T04:59:57;8.00;99.90
31967;DHT22;18496;52.042;6.812;2024-02-26T05:02:01;8.00;99.90
31967;DHT22;18496;52.042;6.812;2024-02-26T05:04:05;8.00;99.90
31967;DHT22;18496;52.042;6.812;2024-02-26T05:06:08;8.00;99.90
31967;DHT22;18496;52.042;6.812;2024-02-26T05:08:12;8.00;99.90
31967;DHT22;18496;52.042;6.812;2024-02-26T05:10:16;8.00;99.90
31967;DHT22;18496;52.042;6.812;2024-02-26T05:12:20;8.00;99.90
31967;DHT22;18496;52.042;6.812;2024-02-26T05:14:24;8.00;99.90
31967;DHT22;18496;52.042;6.812;2024-02-26T05:16:27;8.00;99.90
31967;DHT22;18496;52.042;6.812;2024-02-26T05:18:33;8.00;99.90
31967;DHT22;18496;52.042;6.812;2024-02-26T05:20:37;8.00;99.90
31967;DHT22;18496;52.042;6.812;2024-02-26T05:22:41;8.00;99.90
31967;DHT22;18496;52.042;6.812;2024-02-26T05:24:45;8.00;99.90
31967;DHT22;18496;52.042;6.812;2024-02-26T05:26:49;8.00;99.90
31967;DHT22;18496;52.042;6.812;2024-02-26T05:28:53;8.00;99.90
31967;DHT22;18496;52.042;6.812;2024-02-26T05:30:56;8.00;99.90
31967;DHT22;18496;52.042;6.812;2024-02-26T05:33:00;8.00;99.90
31967;DHT22;18496;52.042;6.812;2024-02-26T05:35:04;8.00;99.90
31967;DHT22;18496;52.042;6.812;2024-02-26T05:37:08;7.90;99.90
31967;DHT22;18496;52.042;6.812;2024-02-26T05:39:12;7.90;99.90
31967;DHT22;18496;52.042;6.812;2024-02-26T05:41:16;7.90;99.90
31967;DHT22;18496;52.042;6.812;2024-02-26T05:43:20;7.90;99.90
31967;DHT22;18496;52.042;6.812;2024-02-26T05:45:23;8.00;99.90
31967;DHT22;18496;52.042;6.812;2024-02-26T05:47:27;8.00;99.90
31967;DHT22;18496;52.042;6.812;2024-02-26T05:49:31;8.00;99.90
31967;DHT22;18496;52.042;6.812;2024-02-26T05:51:35;8.00;99.90
31967;DHT22;18496;52.042;6.812;2024-02-26T05:53:40;7.90;99.90
31967;DHT22;18496;52.042;6.812;2024-02-26T05:55:44;7.90;99.90
31967;DHT22;18496;52.042;6.812;2024-02-26T05:57:48;7.90;99.90
31967;DHT22;18496;52.042;6.812;2024-02-26T05:59:53;7.90;99.90
31967;DHT22;18496;52.042;6.812;2024-02-26T06:01:56;7.90;99.90
31967;DHT22;18496;52.042;6.812;2024-02-26T06:04:00;7.90;99.90
31967;DHT22;18496;52.042;6.812;2024-02-26T06:06:04;7.90;99.90
31967;DHT22;18496;52.042;6.812;2024-02-26T06:08:08;7.90;99.90
31967;DHT22;18496;52.042;6.812;2024-02-26T06:10:11;7.90;99.90
31967;DHT22;18496;52.042;6.812;2024-02-26T06:12:17;7.80;99.90
31967;DHT22;18496;52.042;6.812;2024-02-26T06:14:20;7.80;99.90
31967;DHT22;18496;52.042;6.812;2024-02-26T06:16:24;7.80;99.90
31967;DHT22;18496;52.042;6.812;2024-02-26T06:18:28;7.80;99.90
31967;DHT22;18496;52.042;6.812;2024-02-26T06:20:31;7.80;99.90
31967;DHT22;18496;52.042;6.812;2024-02-26T06:22:35;7.70;99.90
31967;DHT22;18496;52.042;6.812;2024-02-26T06:24:39;7.70;99.90
31967;DHT22;18496;52.042;6.812;2024-02-26T06:26:43;7.70;99.90
31967;DHT22;18496;52.042;6.812;2024-02-26T06:28:46;7.70;99.90
31967;DHT22;18496;52.042;6.812;2024-02-26T06:30:50;7.70;99.90
31967;DHT22;18496;52.042;6.812;2024-02-26T06:32:55;7.70;99.90
31967;DHT22;18496;52.042;6.812;2024-02-26T06:34:59;7.70;99.90
31967;DHT22;18496;52.042;6.812;2024-02-26T06:37:03;7.70;99.90
31967;DHT22;18496;52.042;6.812;2024-02-26T06:39:07;7.70;99.90
31967;DHT22;18496;52.042;6.812;2024-02-26T06:41:11;7.70;99.90
31967;DHT22;18496;52.042;6.812;2024-02-26T06:43:15;7.70;99.90
31967;DHT22;18496;52.042;6.812;2024-02-26T06:45:19;7.70;99.90
31967;DHT22;18496;52.042;6.812;2024-02-26T06:47:23;7.80;99.90
31967;DHT22;18496;52.042;6.812;2024-02-26T06:49:27;7.70;99.90
31967;DHT22;18496;52.042;6.812;2024-02-26T06:51:31;7.70;99.90
31967;DHT22;18496;52.042;6.812;2024-02-26T06:53:34;7.70;99.90
31967;DHT22;18496;52.042;6.812;2024-02-26T06:55:38;7.70;99.90
31967;DHT22;18496;52.042;6.812;2024-02-26T06:57:44;7.70;99.90
31967;DHT22;18496;52.042;6.812;2024-02-26T06:59:47;7.70;99.90
31967;DHT22;18496;52.042;6.812;2024-02-26T07:01:51;7.70;99.90
31967;DHT22;18496;52.042;6.812;2024-02-26T07:03:55;7.70;99.90
31967;DHT22;18496;52.042;6.812;2024-02-26T07:05:58;7.70;99.90
31967;DHT22;18496;52.042;6.812;2024-02-26T07:08:02;7.70;99.90
31967;DHT22;18496;52.042;6.812;2024-02-26T07:10:06;7.70;99.90
31967;DHT22;18496;52.042;6.812;2024-02-26T07:12:10;7.70;99.90
31967;DHT22;18496;52.042;6.812;2024-02-26T07:14:13;7.70;99.90
31967;DHT22;18496;52.042;6.812;2024-02-26T07:16:17;7.70;99.90
31967;DHT22;18496;52.042;6.812;2024-02-26T07:18:21;7.70;99.90
31967;DHT22;18496;52.042;6.812;2024-02-26T07:20:24;7.70;99.90
31967;DHT22;18496;52.042;6.812;2024-02-26T07:22:28;7.60;99.90
31967;DHT22;18496;52.042;6.812;2024-02-26T07:24:32;7.60;99.90
31967;DHT22;18496;52.042;6.812;2024-02-26T07:26:35;7.60;99.90
31967;DHT22;18496;52.042;6.812;2024-02-26T07:28:39;7.60;99.90
31967;DHT22;18496;52.042;6.812;2024-02-26T07:30:43;7.60;99.90
31967;DHT22;18496;52.042;6.812;2024-02-26T07:32:47;7.70;99.90
31967;DHT22;18496;52.042;6.812;2024-02-26T07:34:50;7.60;99.90
31967;DHT22;18496;52.042;6.812;2024-02-26T07:36:55;7.60;99.90
31967;DHT22;18496;52.042;6.812;2024-02-26T07:38:59;7.60;99.90
31967;DHT22;18496;52.042;6.812;2024-02-26T07:41:04;7.60;99.90
31967;DHT22;18496;52.042;6.812;2024-02-26T07:43:08;7.60;99.90
31967;DHT22;18496;52.042;6.812;2024-02-26T07:45:12;7.60;99.90
31967;DHT22;18496;52.042;6.812;2024-02-26T07:47:16;7.60;99.90
31967;DHT22;18496;52.042;6.812;2024-02-26T07:49:19;7.60;99.90
31967;DHT22;18496;52.042;6.812;2024-02-26T07:51:23;7.60;99.90
31967;DHT22;18496;52.042;6.812;2024-02-26T07:53:27;7.60;99.90
31967;DHT22;18496;52.042;6.812;2024-02-26T07:55:30;7.60;99.90
31967;DHT22;18496;52.042;6.812;2024-02-26T07:57:35;7.60;99.90
31967;DHT22;18496;52.042;6.812;2024-02-26T07:59:40;7.60;99.90
31967;DHT22;18496;52.042;6.812;2024-02-26T08:01:44;7.60;99.90
31967;DHT22;18496;52.042;6.812;2024-02-26T08:03:53;7.60;99.90
31967;DHT22;18496;52.042;6.812;2024-02-26T08:05:57;7.60;99.90
31967;DHT22;18496;52.042;6.812;2024-02-26T08:08:00;7.60;99.90
31967;DHT22;18496;52.042;6.812;2024-02-26T08:10:04;7.50;99.90
31967;DHT22;18496;52.042;6.812;2024-02-26T08:12:08;7.50;99.90
31967;DHT22;18496;52.042;6.812;2024-02-26T08:14:12;7.50;99.90
31967;DHT22;18496;52.042;6.812;2024-02-26T08:16:16;7.60;99.90
31967;DHT22;18496;52.042;6.812;2024-02-26T08:18:19;7.60;99.90
31967;DHT22;18496;52.042;6.812;2024-02-26T08:20:23;7.60;99.90
31967;DHT22;18496;52.042;6.812;2024-02-26T08:22:27;7.60;99.90
31967;DHT22;18496;52.042;6.812;2024-02-26T08:24:31;7.60;99.90
31967;DHT22;18496;52.042;6.812;2024-02-26T08:26:34;7.70;99.90
31967;DHT22;18496;52.042;6.812;2024-02-26T08:28:38;7.70;99.90
31967;DHT22;18496;52.042;6.812;2024-02-26T08:30:42;7.70;99.90
31967;DHT22;18496;52.042;6.812;2024-02-26T08:32:47;7.60;99.90
31967;DHT22;18496;52.042;6.812;2024-02-26T08:34:50;7.60;99.90
31967;DHT22;18496;52.042;6.812;2024-02-26T08:36:54;7.60;99.90
31967;DHT22;18496;52.042;6.812;2024-02-26T08:38:58;7.60;99.90
31967;DHT22;18496;52.042;6.812;2024-02-26T08:41:02;7.70;99.90
31967;DHT22;18496;52.042;6.812;2024-02-26T08:43:08;7.60;99.90
31967;DHT22;18496;52.042;6.812;2024-02-26T08:45:13;7.60;99.90
31967;DHT22;18496;52.042;6.812;2024-02-26T08:47:17;7.60;99.90
31967;DHT22;18496;52.042;6.812;2024-02-26T08:49:20;7.60;99.90
31967;DHT22;18496;52.042;6.812;2024-02-26T08:51:26;7.50;99.90
31967;DHT22;18496;52.042;6.812;2024-02-26T08:53:30;7.60;99.90
31967;DHT22;18496;52.042;6.812;2024-02-26T08:55:34;7.60;99.90
31967;DHT22;18496;52.042;6.812;2024-02-26T08:57:37;7.50;99.90
31967;DHT22;18496;52.042;6.812;2024-02-26T08:59:42;7.50;99.90
31967;DHT22;18496;52.042;6.812;2024-02-26T09:01:45;7.50;99.90
31967;DHT22;18496;52.042;6.812;2024-02-26T09:03:49;7.60;99.90
31967;DHT22;18496;52.042;6.812;2024-02-26T09:05:53;7.50;99.90
31967;DHT22;18496;52.042;6.812;2024-02-26T09:07:57;7.60;99.90
31967;DHT22;18496;52.042;6.812;2024-02-26T09:10:00;7.60;99.90
31967;DHT22;18496;52.042;6.812;2024-02-26T09:12:04;7.60;99.90
31967;DHT22;18496;52.042;6.812;2024-02-26T09:14:08;7.60;99.90
31967;DHT22;18496;52.042;6.812;2024-02-26T09:16:12;7.60;99.90
31967;DHT22;18496;52.042;6.812;2024-02-26T09:18:16;7.60;99.90
31967;DHT22;18496;52.042;6.812;2024-02-26T09:20:20;7.60;99.90
31967;DHT22;18496;52.042;6.812;2024-02-26T09:22:25;7.60;99.90
31967;DHT22;18496;52.042;6.812;2024-02-26T09:24:29;7.60;99.90
31967;DHT22;18496;52.042;6.812;2024-02-26T09:26:32;7.60;99.90
31967;DHT22;18496;52.042;6.812;2024-02-26T09:28:36;7.60;99.90
31967;DHT22;18496;52.042;6.812;2024-02-26T09:30:40;7.60;99.90
31967;DHT22;18496;52.042;6.812;2024-02-26T09:32:46;7.60;99.90
31967;DHT22;18496;52.042;6.812;2024-02-26T09:34:51;7.70;99.90
31967;DHT22;18496;52.042;6.812;2024-02-26T09:36:55;7.70;99.90
31967;DHT22;18496;52.042;6.812;2024-02-26T09:38:58;7.70;99.90
31967;DHT22;18496;52.042;6.812;2024-02-26T09:41:02;7.60;99.90
31967;DHT22;18496;52.042;6.812;2024-02-26T09:43:07;7.70;99.90
31967;DHT22;18496;52.042;6.812;2024-02-26T09:45:21;7.70;99.90
31967;DHT22;18496;52.042;6.812;2024-02-26T09:47:26;7.70;99.90
31967;DHT22;18496;52.042;6.812;2024-02-26T09:49:31;7.70;99.90
31967;DHT22;18496;52.042;6.812;2024-02-26T09:51:35;7.70;99.90
31967;DHT22;18496;52.042;6.812;2024-02-26T09:53:39;7.70;99.90
31967;DHT22;18496;52.042;6.812;2024-02-26T09:55:46;7.70;99.90
31967;DHT22;18496;52.042;6.812;2024-02-26T09:57:51;7.70;99.90
31967;DHT22;18496;52.042;6.812;2024-02-26T09:59:59;7.70;99.90
31967;DHT22;18496;52.042;6.812;2024-02-26T10:02:14;7.70;99.90
31967;DHT22;18496;52.042;6.812;2024-02-26T10:04:18;7.70;99.90
31967;DHT22;18496;52.042;6.812;2024-02-26T10:06:24;7.70;99.90
31967;DHT22;18496;52.042;6.812;2024-02-26T10:08:29;7.80;99.90
31967;DHT22;18496;52.042;6.812;2024-02-26T10:10:33;7.80;99.90
31967;DHT22;18496;52.042;6.812;2024-02-26T10:12:37;7.80;99.90
31967;DHT22;18496;52.042;6.812;2024-02-26T10:14:41;7.80;99.90
31967;DHT22;18496;52.042;6.812;2024-02-26T10:16:44;7.80;99.90
31967;DHT22;18496;52.042;6.812;2024-02-26T10:18:49;7.70;99.90
31967;DHT22;18496;52.042;6.812;2024-02-26T10:21:02;7.80;99.90
31967;DHT22;18496;52.042;6.812;2024-02-26T10:23:06;7.80;99.90
31967;DHT22;18496;52.042;6.812;2024-02-26T10:25:10;7.80;99.90
31967;DHT22;18496;52.042;6.812;2024-02-26T10:27:15;7.80;99.90
31967;DHT22;18496;52.042;6.812;2024-02-26T10:29:19;7.80;99.90
31967;DHT22;18496;52.042;6.812;2024-02-26T10:31:23;7.80;99.90
31967;DHT22;18496;52.042;6.812;2024-02-26T10:33:27;7.80;99.90
31967;DHT22;18496;52.042;6.812;2024-02-26T10:35:31;7.80;99.90
31967;DHT22;18496;52.042;6.812;2024-02-26T10:37:35;7.80;99.90
31967;DHT22;18496;52.042;6.812;2024-02-26T10:39:39;7.80;99.90
31967;DHT22;18496;52.042;6.812;2024-02-26T10:41:43;7.80;99.90
31967;DHT22;18496;52.042;6.812;2024-02-26T10:43:47;7.80;99.90
31967;DHT22;18496;52.042;6.812;2024-02-26T10:45:51;7.80;99.90
31967;DHT22;18496;52.042;6.812;2024-02-26T10:47:55;7.80;99.90
31967;DHT22;18496;52.042;6.812;2024-02-26T10:49:59;7.90;99.90
31967;DHT22;18496;52.042;6.812;2024-02-26T10:52:06;7.90;99.90
31967;DHT22;18496;52.042;6.812;2024-02-26T10:54:15;7.80;99.90
31967;DHT22;18496;52.042;6.812;2024-02-26T10:56:20;7.90;99.90
31967;DHT22;18496;52.042;6.812;2024-02-26T10:58:25;7.80;99.90
31967;DHT22;18496;52.042;6.812;2024-02-26T11:00:29;7.90;99.90
31967;DHT22;18496;52.042;6.812;2024-02-26T11:02:36;7.80;99.90
31967;DHT22;18496;52.042;6.812;2024-02-26T11:04:40;7.90;99.90
31967;DHT22;18496;52.042;6.812;2024-02-26T11:06:45;7.90;99.90
31967;DHT22;18496;52.042;6.812;2024-02-26T11:08:52;7.90;99.90
31967;DHT22;18496;52.042;6.812;2024-02-26T11:10:57;7.90;99.90
31967;DHT22;18496;52.042;6.812;2024-02-26T11:13:01;7.90;99.90
31967;DHT22;18496;52.042;6.812;2024-02-26T11:15:06;7.90;99.90
31967;DHT22;18496;52.042;6.812;2024-02-26T11:17:12;7.90;99.90
31967;DHT22;18496;52.042;6.812;2024-02-26T11:19:17;8.00;99.90
31967;DHT22;18496;52.042;6.812;2024-02-26T11:21:21;7.90;99.90
31967;DHT22;18496;52.042;6.812;2024-02-26T11:23:42;7.90;99.90
31967;DHT22;18496;52.042;6.812;2024-02-26T11:25:46;7.90;99.90
31967;DHT22;18496;52.042;6.812;2024-02-26T11:27:57;7.90;99.90
31967;DHT22;18496;52.042;6.812;2024-02-26T11:30:03;8.00;99.90
31967;DHT22;18496;52.042;6.812;2024-02-26T11:32:09;8.00;99.90
31967;DHT22;18496;52.042;6.812;2024-02-26T11:34:13;8.00;99.90
31967;DHT22;18496;52.042;6.812;2024-02-26T11:36:17;8.00;99.90
31967;DHT22;18496;52.042;6.812;2024-02-26T11:38:24;8.00;99.90
31967;DHT22;18496;52.042;6.812;2024-02-26T11:40:27;8.00;99.90
31967;DHT22;18496;52.042;6.812;2024-02-26T11:42:31;8.00;99.90
31967;DHT22;18496;52.042;6.812;2024-02-26T11:44:36;8.00;99.90
31967;DHT22;18496;52.042;6.812;2024-02-26T11:46:42;8.00;99.90
31967;DHT22;18496;52.042;6.812;2024-02-26T11:48:46;7.90;99.90
31967;DHT22;18496;52.042;6.812;2024-02-26T11:50:54;8.00;99.90
31967;DHT22;18496;52.042;6.812;2024-02-26T11:53:24;8.00;99.90
31967;DHT22;18496;52.042;6.812;2024-02-26T11:55:32;8.00;99.90
31967;DHT22;18496;52.042;6.812;2024-02-26T11:59:40;8.00;99.90
31967;DHT22;18496;52.042;6.812;2024-02-26T12:01:48;8.10;99.90
31967;DHT22;18496;52.042;6.812;2024-02-26T12:03:54;8.10;99.90
31967;DHT22;18496;52.042;6.812;2024-02-26T12:05:58;8.00;99.90
31967;DHT22;18496;52.042;6.812;2024-02-26T12:08:05;8.00;99.90
31967;DHT22;18496;52.042;6.812;2024-02-26T12:10:15;8.00;99.90
31967;DHT22;18496;52.042;6.812;2024-02-26T12:12:19;8.00;99.90
31967;DHT22;18496;52.042;6.812;2024-02-26T12:14:32;8.00;99.90
31967;DHT22;18496;52.042;6.812;2024-02-26T12:16:39;8.00;99.90
31967;DHT22;18496;52.042;6.812;2024-02-26T12:18:44;8.00;99.90
31967;DHT22;18496;52.042;6.812;2024-02-26T12:20:59;8.00;99.90
31967;DHT22;18496;52.042;6.812;2024-02-26T12:23:04;8.00;99.90
31967;DHT22;18496;52.042;6.812;2024-02-26T12:25:09;7.90;99.90
31967;DHT22;18496;52.042;6.812;2024-02-26T12:27:13;8.00;99.90
31967;DHT22;18496;52.042;6.812;2024-02-26T12:29:18;8.00;99.90
31967;DHT22;18496;52.042;6.812;2024-02-26T12:31:22;8.00;99.90
31967;DHT22;18496;52.042;6.812;2024-02-26T12:33:27;8.00;99.90
31967;DHT22;18496;52.042;6.812;2024-02-26T12:35:31;8.00;99.90
31967;DHT22;18496;52.042;6.812;2024-02-26T12:37:35;8.00;99.90
31967;DHT22;18496;52.042;6.812;2024-02-26T12:39:41;8.00;99.90
31967;DHT22;18496;52.042;6.812;2024-02-26T12:41:45;7.90;99.90
31967;DHT22;18496;52.042;6.812;2024-02-26T12:43:53;7.90;99.90
31967;DHT22;18496;52.042;6.812;2024-02-26T12:45:57;7.90;99.90
31967;DHT22;18496;52.042;6.812;2024-02-26T12:48:00;7.90;99.90
31967;DHT22;18496;52.042;6.812;2024-02-26T12:50:05;7.90;99.90
31967;DHT22;18496;52.042;6.812;2024-02-26T12:52:09;7.90;99.90
31967;DHT22;18496;52.042;6.812;2024-02-26T12:54:14;7.90;99.90
31967;DHT22;18496;52.042;6.812;2024-02-26T12:56:18;7.90;99.90
31967;DHT22;18496;52.042;6.812;2024-02-26T12:58:22;8.00;99.90
31967;DHT22;18496;52.042;6.812;2024-02-26T13:00:31;8.00;99.90
31967;DHT22;18496;52.042;6.812;2024-02-26T13:02:36;8.00;99.90
31967;DHT22;18496;52.042;6.812;2024-02-26T13:04:41;8.00;99.90
31967;DHT22;18496;52.042;6.812;2024-02-26T13:06:44;8.10;99.90
31967;DHT22;18496;52.042;6.812;2024-02-26T13:08:50;8.10;99.90
31967;DHT22;18496;52.042;6.812;2024-02-26T13:10:59;8.10;99.90
31967;DHT22;18496;52.042;6.812;2024-02-26T13:13:04;8.10;99.90
31967;DHT22;18496;52.042;6.812;2024-02-26T13:15:13;8.10;99.90
31967;DHT22;18496;52.042;6.812;2024-02-26T13:17:21;8.10;99.90
31967;DHT22;18496;52.042;6.812;2024-02-26T13:19:28;8.10;99.90